Time;durP1;ratioP1;P1;durP2;ratioP2;P2;SDS_P1;SDS_P2;PMS_P1;PMS_P2;Temp;Humidity;BMP_temperature;BMP_pressure;BME280_temperature;BME280_humidity;BME280_pressure;Samples;Min_cycle;Max_cycle;Signal;HPM_P1;HPM_P2
2022/12/07 00:01:15;;;;;;;49.45;21.00;;;13.20;86.60;;;;;;6252488;22;20042;-83
2022/12/07 00:03:42;;;;;;;34.85;19.77;;;13.20;86.80;;;;;;6278923;22;20137;-83
2022/12/07 00:06:10;;;;;;;41.53;20.73;;;13.10;86.70;;;;;;6277927;22;20310;-82
2022/12/07 00:08:36;;;;;;;40.35;20.25;;;13.10;86.90;;;;;;6250447;22;20039;-81
2022/12/07 00:11:22;;;;;;;43.38;21.13;;;13.10;87.00;;;;;;6250811;22;20007;-83
2022/12/07 00:13:57;;;;;;;37.53;21.25;;;13.00;87.10;;;;;;6275043;22;20024;-73
2022/12/07 00:16:25;;;;;;;36.47;19.40;;;13.00;86.60;;;;;;6250742;22;20086;-82
2022/12/07 00:18:50;;;;;;;34.25;21.45;;;12.90;87.40;;;;;;6250837;22;20000;-82
2022/12/07 00:21:19;;;;;;;37.42;20.20;;;12.80;87.30;;;;;;6277413;22;20007;-83
2022/12/07 00:23:47;;;;;;;33.17;18.92;;;12.80;87.80;;;;;;6277462;22;20057;-82
2022/12/07 00:26:24;;;;;;;33.13;19.58;;;12.80;87.90;;;;;;6277671;22;20065;-82
2022/12/07 00:28:55;;;;;;;38.35;21.13;;;12.80;88.20;;;;;;6287258;22;20036;-82
2022/12/07 00:31:24;;;;;;;36.03;20.20;;;12.80;87.60;;;;;;6296147;22;20428;-84
2022/12/07 00:33:50;;;;;;;37.72;20.13;;;12.70;88.20;;;;;;6259128;22;20012;-84
2022/12/07 00:36:19;;;;;;;38.95;19.83;;;12.70;88.20;;;;;;6277674;22;20453;-84
2022/12/07 00:38:44;;;;;;;36.72;19.25;;;12.70;88.20;;;;;;6277942;22;20000;-84
2022/12/07 00:41:12;;;;;;;37.17;21.08;;;12.80;88.10;;;;;;6250241;22;20077;-83
2022/12/07 00:43:38;;;;;;;31.17;19.10;;;12.80;88.30;;;;;;6250509;22;20094;-83
2022/12/07 00:46:04;;;;;;;35.60;19.55;;;12.70;88.20;;;;;;6277431;22;20027;-83
2022/12/07 00:48:30;;;;;;;38.88;20.65;;;12.70;88.40;;;;;;6278019;22;20546;-84
2022/12/07 00:50:55;;;;;;;32.08;19.98;;;12.70;88.60;;;;;;6250585;22;20336;-82
2022/12/07 00:53:21;;;;;;;40.38;19.73;;;12.60;88.40;;;;;;6250145;22;20332;-84
2022/12/07 00:55:47;;;;;;;34.92;19.35;;;12.70;88.60;;;;;;6250628;22;20004;-82
2022/12/07 00:58:13;;;;;;;29.20;19.45;;;12.60;88.50;;;;;;6251476;22;20102;-83
2022/12/07 01:00:40;;;;;;;36.15;19.45;;;12.60;88.70;;;;;;6250731;22;20008;-82
2022/12/07 01:03:08;;;;;;;40.58;19.90;;;12.60;88.80;;;;;;6277395;22;20079;-83
2022/12/07 01:05:34;;;;;;;30.10;19.20;;;12.60;88.90;;;;;;6276940;22;19996;-83
2022/12/07 01:08:00;;;;;;;30.23;19.60;;;12.60;88.70;;;;;;6250427;22;20022;-82
2022/12/07 01:10:27;;;;;;;36.50;17.73;;;12.60;88.60;;;;;;6276879;22;20000;-84
2022/12/07 01:12:52;;;;;;;31.75;17.75;;;12.60;88.30;;;;;;6249895;22;20012;-82
2022/12/07 01:15:18;;;;;;;29.13;17.77;;;12.50;88.40;;;;;;6249909;22;20062;-83
2022/12/07 01:17:44;;;;;;;31.52;17.17;;;12.50;88.30;;;;;;6277565;22;19999;-83
2022/12/07 01:20:11;;;;;;;30.35;16.83;;;12.40;88.20;;;;;;6277678;22;20022;-82
2022/12/07 01:22:41;;;;;;;26.95;16.83;;;12.50;88.10;;;;;;6278232;22;21116;-82
2022/12/07 01:25:07;;;;;;;32.42;15.35;;;12.50;88.30;;;;;;6250266;22;20014;-81
2022/12/07 01:27:34;;;;;;;26.27;14.25;;;12.50;87.90;;;;;;6250021;22;20015;-82
2022/12/07 01:30:01;;;;;;;28.00;14.38;;;12.40;87.50;;;;;;6277002;22;20058;-82
2022/12/07 01:32:27;;;;;;;26.73;14.90;;;12.40;87.70;;;;;;6249823;22;20031;-82
2022/12/07 01:34:53;;;;;;;26.30;13.52;;;12.40;87.50;;;;;;6249414;22;20007;-81
2022/12/07 01:37:18;;;;;;;28.17;13.23;;;12.40;87.50;;;;;;6249881;22;20007;-80
2022/12/07 01:39:47;;;;;;;28.73;14.20;;;12.40;87.40;;;;;;6250050;22;20389;-81
2022/12/07 01:42:13;;;;;;;22.40;13.52;;;12.40;87.40;;;;;;6249704;22;20008;-82
2022/12/07 01:45:16;;;;;;;26.90;14.13;;;12.40;87.30;;;;;;6277623;22;20006;-82
2022/12/07 01:47:46;;;;;;;22.20;12.70;;;12.40;86.70;;;;;;6277485;22;20016;-83
2022/12/07 01:50:13;;;;;;;30.20;14.77;;;12.40;87.40;;;;;;6277572;22;20030;-83
2022/12/07 01:52:41;;;;;;;24.23;12.38;;;12.40;87.30;;;;;;6249704;22;20440;-82
2022/12/07 01:55:13;;;;;;;20.58;12.63;;;12.40;87.30;;;;;;6249368;22;20003;-83
2022/12/07 01:57:43;;;;;;;23.55;12.93;;;12.40;87.20;;;;;;6249396;22;20031;-83
2022/12/07 02:00:10;;;;;;;24.80;12.50;;;12.40;87.40;;;;;;6249876;22;20344;-82
2022/12/07 02:02:50;;;;;;;24.38;12.70;;;12.40;86.90;;;;;;6277319;22;20035;-81
2022/12/07 02:05:17;;;;;;;23.35;12.27;;;12.40;86.30;;;;;;6249497;22;20000;-84
2022/12/07 02:07:46;;;;;;;29.58;12.88;;;12.40;87.10;;;;;;6277627;22;20321;-83
2022/12/07 02:10:18;;;;;;;23.40;11.57;;;12.50;87.00;;;;;;6277770;22;20004;-83
2022/12/07 02:12:46;;;;;;;28.63;12.23;;;12.40;86.50;;;;;;6276980;22;20000;-83
2022/12/07 02:15:13;;;;;;;25.70;12.80;;;12.40;86.70;;;;;;6276699;22;20031;-83
2022/12/07 02:17:49;;;;;;;25.45;12.00;;;12.40;86.40;;;;;;6249580;22;20399;-83
2022/12/07 02:20:35;;;;;;;21.80;12.25;;;12.30;86.60;;;;;;6249428;22;20008;-82
2022/12/07 02:23:12;;;;;;;21.35;11.80;;;12.30;86.70;;;;;;6274302;22;20455;-83
2022/12/07 02:25:41;;;;;;;22.77;11.32;;;12.30;86.80;;;;;;6277452;22;20022;-83
2022/12/07 02:28:27;;;;;;;23.75;11.73;;;12.20;86.60;;;;;;6276752;22;20035;-83
2022/12/07 02:30:57;;;;;;;19.38;11.43;;;12.20;86.60;;;;;;6249331;22;20379;-83
2022/12/07 02:33:35;;;;;;;24.30;11.70;;;12.20;86.60;;;;;;6249288;22;20446;-82
2022/12/07 02:36:12;;;;;;;26.90;12.63;;;12.30;86.70;;;;;;6249410;22;20094;-82
2022/12/07 02:38:47;;;;;;;23.02;10.70;;;12.30;85.90;;;;;;6249121;22;20004;-82
2022/12/07 02:41:21;;;;;;;21.83;11.73;;;12.30;86.70;;;;;;6276865;22;20333;-81
2022/12/07 02:43:57;;;;;;;21.70;12.00;;;12.30;86.50;;;;;;6276479;22;20079;-82
2022/12/07 02:46:28;;;;;;;22.40;12.60;;;12.30;86.50;;;;;;6249301;22;20427;-83
2022/12/07 02:48:55;;;;;;;20.15;12.10;;;12.30;86.40;;;;;;6282262;22;20008;-82
2022/12/07 02:51:22;;;;;;;19.08;11.95;;;12.30;86.40;;;;;;6250571;22;20011;-82
2022/12/07 02:53:48;;;;;;;24.52;11.85;;;12.30;86.20;;;;;;6249415;22;20023;-82
2022/12/07 02:56:32;;;;;;;20.63;11.77;;;12.20;86.30;;;;;;6276764;22;20000;-82
2022/12/07 02:59:15;;;;;;;22.38;11.15;;;12.20;86.50;;;;;;6276302;22;19996;-82
2022/12/07 03:01:47;;;;;;;28.85;12.07;;;12.10;85.90;;;;;;6277224;22;20011;-83
2022/12/07 03:04:34;;;;;;;24.63;11.43;;;12.20;86.80;;;;;;6249959;22;20431;-81
2022/12/07 03:07:18;;;;;;;27.88;11.13;;;12.10;86.10;;;;;;6278198;22;20006;-81
2022/12/07 03:10:01;;;;;;;23.60;11.05;;;12.10;86.70;;;;;;6276366;22;20329;-82
2022/12/07 03:12:53;;;;;;;19.23;11.07;;;12.10;86.20;;;;;;6249449;22;20406;-82
2022/12/07 03:15:42;;;;;;;22.33;9.63;;;12.10;86.00;;;;;;6276651;22;20023;-81
2022/12/07 03:18:10;;;;;;;19.52;10.18;;;12.10;85.90;;;;;;6279340;22;20449;-80
2022/12/07 03:20:39;;;;;;;30.05;11.23;;;12.10;86.40;;;;;;6255734;22;20000;-82
2022/12/07 03:23:12;;;;;;;25.80;11.07;;;12.10;86.50;;;;;;6250539;22;20015;-83
2022/12/07 03:25:49;;;;;;;22.67;11.68;;;12.00;86.50;;;;;;6250206;22;20011;-83
2022/12/07 03:28:19;;;;;;;24.25;11.45;;;12.00;86.60;;;;;;6248795;22;20016;-81
2022/12/07 03:30:51;;;;;;;25.15;11.30;;;12.00;86.90;;;;;;6276073;22;20003;-82
2022/12/07 03:33:27;;;;;;;26.95;11.23;;;11.90;86.90;;;;;;6276594;22;20428;-82
2022/12/07 03:36:20;;;;;;;18.27;11.30;;;12.00;87.20;;;;;;6250676;22;20007;-81
2022/12/07 03:38:53;;;;;;;15.35;10.80;;;11.90;86.60;;;;;;6278078;22;20000;-82
2022/12/07 03:41:24;;;;;;;25.83;11.10;;;11.90;87.30;;;;;;6250774;22;20058;-82
2022/12/07 03:43:51;;;;;;;24.90;11.57;;;11.90;87.30;;;;;;6278269;22;20486;-81
2022/12/07 03:46:42;;;;;;;24.27;12.20;;;11.90;87.30;;;;;;6250475;22;20010;-81
2022/12/07 03:49:41;;;;;;;25.08;12.75;;;11.90;87.60;;;;;;6261211;22;20104;-82
2022/12/07 03:52:31;;;;;;;23.60;11.52;;;11.90;87.00;;;;;;6236942;22;20046;-82
2022/12/07 03:55:17;;;;;;;25.52;12.45;;;11.90;87.10;;;;;;6251036;22;20007;-83
2022/12/07 03:57:44;;;;;;;27.80;12.18;;;11.90;87.50;;;;;;6277662;22;19999;-82
2022/12/07 04:00:11;;;;;;;21.63;11.57;;;11.80;87.80;;;;;;6279780;22;20011;-81
2022/12/07 04:02:37;;;;;;;24.50;11.63;;;11.80;87.80;;;;;;6277898;22;20007;-83
2022/12/07 04:05:04;;;;;;;20.92;10.80;;;11.90;87.90;;;;;;6250328;22;20007;-82
2022/12/07 04:07:29;;;;;;;25.38;11.32;;;11.90;88.00;;;;;;6262329;22;20011;-82
2022/12/07 04:09:55;;;;;;;23.50;11.32;;;11.90;87.80;;;;;;6301862;22;19999;-81
2022/12/07 04:12:22;;;;;;;24.25;10.75;;;12.00;87.90;;;;;;6291462;22;20003;-81
2022/12/07 04:14:47;;;;;;;21.80;10.77;;;12.00;88.00;;;;;;6278466;22;20012;-82
2022/12/07 04:17:13;;;;;;;22.58;11.15;;;12.00;87.80;;;;;;6278246;22;20117;-82
2022/12/07 04:19:39;;;;;;;24.80;10.93;;;11.90;87.70;;;;;;6277835;22;20035;-82
2022/12/07 04:22:05;;;;;;;24.45;11.27;;;12.00;87.80;;;;;;6250323;22;20447;-81
2022/12/07 04:24:32;;;;;;;35.65;11.80;;;11.90;87.70;;;;;;6277629;22;20008;-82
2022/12/07 04:26:58;;;;;;;18.70;10.55;;;12.00;88.00;;;;;;6277370;22;20027;-82
2022/12/07 04:29:24;;;;;;;25.30;11.00;;;12.00;87.90;;;;;;6277061;22;20340;-82
2022/12/07 04:31:50;;;;;;;24.40;10.55;;;12.00;87.90;;;;;;6277592;22;19996;-83
2022/12/07 04:34:17;;;;;;;24.73;10.20;;;12.10;88.00;;;;;;6277341;22;20058;-81
2022/12/07 04:36:44;;;;;;;20.67;9.85;;;12.10;87.60;;;;;;6250093;22;20030;-82
2022/12/07 04:39:27;;;;;;;24.17;10.27;;;12.10;87.90;;;;;;6277557;22;20065;-82
2022/12/07 04:41:53;;;;;;;21.90;9.93;;;12.10;87.00;;;;;;6250047;22;20014;-80
2022/12/07 04:44:20;;;;;;;26.25;9.73;;;12.10;87.30;;;;;;6249750;22;20019;-82
2022/12/07 04:46:46;;;;;;;18.88;10.25;;;12.10;87.60;;;;;;6281560;22;19995;-82
2022/12/07 04:49:13;;;;;;;25.92;9.82;;;12.10;87.20;;;;;;6267349;22;20321;-83
2022/12/07 04:51:39;;;;;;;26.67;10.05;;;12.10;87.00;;;;;;6295580;22;19999;-82
2022/12/07 04:54:04;;;;;;;19.33;9.02;;;12.00;86.80;;;;;;6262307;22;20014;-82
2022/12/07 04:56:31;;;;;;;20.70;9.20;;;12.00;86.80;;;;;;6282302;22;20051;-82
2022/12/07 04:58:57;;;;;;;22.45;8.52;;;12.00;86.40;;;;;;6252380;22;20333;-81
2022/12/07 05:01:23;;;;;;;18.25;8.00;;;11.90;86.20;;;;;;6250147;22;20030;-82
2022/12/07 05:03:49;;;;;;;16.20;7.80;;;11.90;86.30;;;;;;6277442;22;20455;-82
2022/12/07 05:06:15;;;;;;;15.38;7.53;;;11.90;86.10;;;;;;6249765;22;20039;-81
2022/12/07 05:08:41;;;;;;;19.55;7.75;;;12.00;86.10;;;;;;6249710;22;20043;-82
2022/12/07 05:11:08;;;;;;;16.40;7.55;;;11.90;86.30;;;;;;6250533;22;20015;-83
2022/12/07 05:13:35;;;;;;;16.75;7.40;;;12.00;86.30;;;;;;6249885;22;20019;-83
2022/12/07 05:16:00;;;;;;;20.83;7.93;;;12.00;86.30;;;;;;6249677;22;20014;-82
2022/12/07 05:18:26;;;;;;;25.33;8.82;;;12.00;86.20;;;;;;6276819;22;20003;-82
2022/12/07 05:20:52;;;;;;;15.75;8.48;;;12.00;86.20;;;;;;6249768;22;20057;-84
2022/12/07 05:23:18;;;;;;;20.27;8.15;;;11.90;86.00;;;;;;6249809;22;20440;-84
2022/12/07 05:25:46;;;;;;;17.98;7.35;;;11.90;86.00;;;;;;6249673;22;20000;-83
2022/12/07 05:28:12;;;;;;;13.73;7.70;;;11.90;86.00;;;;;;6276943;22;20142;-83
2022/12/07 05:30:37;;;;;;;19.05;7.75;;;11.90;86.00;;;;;;6249593;22;20027;-81
2022/12/07 05:33:03;;;;;;;18.38;8.02;;;11.90;85.80;;;;;;6276945;22;20000;-81
2022/12/07 05:35:29;;;;;;;20.58;8.05;;;11.90;85.90;;;;;;6249907;22;20091;-81
2022/12/07 05:37:56;;;;;;;22.00;10.50;;;11.90;85.70;;;;;;6277077;22;20010;-83
2022/12/07 05:40:22;;;;;;;23.00;8.13;;;11.90;85.90;;;;;;6277117;22;20057;-82
2022/12/07 05:42:48;;;;;;;14.68;7.10;;;11.90;85.80;;;;;;6278142;22;20003;-82
2022/12/07 05:45:14;;;;;;;17.38;6.90;;;11.80;85.60;;;;;;6251139;22;20087;-82
2022/12/07 05:47:39;;;;;;;21.98;7.18;;;11.80;85.40;;;;;;6249404;22;20016;-81
2022/12/07 05:50:06;;;;;;;18.48;7.68;;;11.70;85.60;;;;;;6249319;22;20030;-83
2022/12/07 05:52:32;;;;;;;13.25;7.32;;;11.80;85.70;;;;;;6249166;22;20007;-82
2022/12/07 05:54:57;;;;;;;26.02;8.98;;;11.70;85.60;;;;;;6276576;22;20343;-82
2022/12/07 05:57:23;;;;;;;23.70;8.90;;;11.70;85.70;;;;;;6276291;22;20142;-82
2022/12/07 05:59:49;;;;;;;17.33;7.97;;;11.70;85.80;;;;;;6276693;22;20495;-82
2022/12/07 06:02:16;;;;;;;19.20;9.15;;;11.60;85.60;;;;;;6276905;22;20053;-82
2022/12/07 06:04:45;;;;;;;22.05;9.50;;;11.60;86.10;;;;;;6250163;22;20011;-82
2022/12/07 06:07:12;;;;;;;18.63;9.50;;;11.60;86.20;;;;;;6249522;22;20516;-83
2022/12/07 06:09:38;;;;;;;22.83;9.32;;;11.60;86.40;;;;;;6277119;22;20007;-85
2022/12/07 06:14:49;;;;;;;20.42;9.38;;;11.60;86.40;;;;;;6277019;22;20031;-82
2022/12/07 06:17:15;;;;;;;15.98;10.15;;;11.60;86.50;;;;;;6249438;22;20007;-72
2022/12/07 06:19:40;;;;;;;18.52;9.05;;;11.60;86.80;;;;;;6249323;22;20057;-82
2022/12/07 06:22:07;;;;;;;19.23;9.35;;;11.60;86.70;;;;;;6276409;22;20022;-83
2022/12/07 06:24:33;;;;;;;20.08;10.15;;;11.50;86.80;;;;;;6276531;22;19996;-82
2022/12/07 06:26:59;;;;;;;19.65;11.05;;;11.50;87.00;;;;;;6276051;22;20057;-83
2022/12/07 06:29:25;;;;;;;19.63;10.60;;;11.50;87.10;;;;;;6276087;22;20003;-82
2022/12/07 06:31:51;;;;;;;22.45;10.05;;;11.50;87.20;;;;;;6248766;22;20016;-81
2022/12/07 06:34:19;;;;;;;22.63;10.18;;;11.60;87.80;;;;;;6248726;22;20014;-82
2022/12/07 06:36:47;;;;;;;26.05;10.80;;;11.60;87.40;;;;;;6248887;22;20000;-82
2022/12/07 06:39:13;;;;;;;22.95;10.90;;;11.60;87.50;;;;;;6249007;22;20405;-83
2022/12/07 06:41:39;;;;;;;20.15;10.52;;;11.60;87.20;;;;;;6276252;22;20007;-83
2022/12/07 06:44:05;;;;;;;25.50;12.07;;;11.60;87.40;;;;;;6248668;22;20003;-83
2022/12/07 06:46:31;;;;;;;25.42;11.30;;;11.60;87.50;;;;;;6275549;22;20000;-82
2022/12/07 06:48:57;;;;;;;21.40;10.40;;;11.60;87.40;;;;;;6248616;22;20042;-82
2022/12/07 06:51:23;;;;;;;26.20;10.73;;;11.60;87.30;;;;;;6276144;22;19996;-83
2022/12/07 06:53:49;;;;;;;20.75;9.85;;;11.60;87.40;;;;;;6275780;22;20010;-82
2022/12/07 06:56:15;;;;;;;22.88;10.65;;;11.60;87.30;;;;;;6277355;22;20027;-78
2022/12/07 06:58:40;;;;;;;20.88;10.07;;;11.60;87.50;;;;;;6275850;22;20428;-86
2022/12/07 07:01:14;;;;;;;21.85;10.82;;;11.60;87.40;;;;;;6276953;22;20419;-84
2022/12/07 07:03:40;;;;;;;22.30;9.75;;;11.70;87.60;;;;;;6249676;22;20454;-82
2022/12/07 07:06:07;;;;;;;22.35;10.57;;;11.70;87.40;;;;;;6249079;22;20073;-84
2022/12/07 07:08:34;;;;;;;29.88;10.25;;;11.70;87.20;;;;;;6275617;22;20018;-84
2022/12/07 07:11:01;;;;;;;21.00;10.45;;;11.80;87.40;;;;;;6276299;22;20439;-84
2022/12/07 07:13:27;;;;;;;25.77;10.93;;;11.90;87.20;;;;;;6250256;22;20012;-85
2022/12/07 07:15:53;;;;;;;24.40;10.30;;;11.90;87.10;;;;;;6277176;22;20011;-85
2022/12/07 07:18:19;;;;;;;21.65;10.32;;;12.00;87.00;;;;;;6248489;22;20008;-82
2022/12/07 07:20:44;;;;;;;24.95;10.82;;;12.10;86.70;;;;;;6248630;22;20008;-81
2022/12/07 07:23:10;;;;;;;36.40;19.35;;;12.20;86.50;;;;;;6248917;22;20003;-83
2022/12/07 07:25:36;;;;;;;27.58;10.48;;;12.30;86.40;;;;;;6248628;22;20007;-82
2022/12/07 07:28:02;;;;;;;27.38;11.15;;;12.40;86.30;;;;;;6248327;22;20050;-81
2022/12/07 07:30:28;;;;;;;20.52;10.32;;;12.40;86.00;;;;;;6248845;22;20432;-82
2022/12/07 07:33:04;;;;;;;18.23;9.77;;;12.40;85.90;;;;;;6275022;22;20004;-78
2022/12/07 07:35:31;;;;;;;25.98;10.20;;;12.40;85.60;;;;;;6248088;22;20107;-79
2022/12/07 07:37:57;;;;;;;25.50;10.10;;;12.50;85.90;;;;;;6247833;22;20077;-80
2022/12/07 07:40:23;;;;;;;24.05;10.75;;;12.50;85.40;;;;;;6274875;22;20078;-78
2022/12/07 07:42:50;;;;;;;21.45;9.75;;;12.50;85.50;;;;;;6247764;22;20012;-77
2022/12/07 07:45:17;;;;;;;22.30;9.85;;;12.50;85.20;;;;;;6274991;22;19996;-78
2022/12/07 07:47:43;;;;;;;19.40;9.13;;;12.60;85.10;;;;;;6274748;22;20016;-79
2022/12/07 07:50:09;;;;;;;19.95;8.80;;;12.50;84.60;;;;;;6248153;22;20381;-78
2022/12/07 07:52:34;;;;;;;22.30;9.43;;;12.50;84.60;;;;;;6275476;22;19999;-77
2022/12/07 07:55:00;;;;;;;19.88;8.57;;;12.60;84.30;;;;;;6274902;22;20057;-77
2022/12/07 07:57:27;;;;;;;21.38;8.30;;;12.50;84.20;;;;;;6274931;22;20003;-77
2022/12/07 07:59:52;;;;;;;25.95;8.90;;;12.50;83.90;;;;;;6247554;22;20014;-79
2022/12/07 08:02:20;;;;;;;23.88;8.15;;;12.40;83.40;;;;;;6274673;22;20333;-77
2022/12/07 08:04:46;;;;;;;18.45;8.38;;;12.40;83.40;;;;;;6274980;22;20037;-78
2022/12/07 08:07:13;;;;;;;22.75;8.60;;;12.40;83.20;;;;;;6274568;22;20367;-78
2022/12/07 08:09:39;;;;;;;21.50;8.18;;;12.40;83.40;;;;;;6274491;22;20038;-78
2022/12/07 08:12:05;;;;;;;20.60;8.60;;;12.50;83.30;;;;;;6247027;22;20011;-81
2022/12/07 08:14:30;;;;;;;21.10;7.70;;;12.50;82.90;;;;;;6247114;22;20019;-84
2022/12/07 08:16:56;;;;;;;19.83;7.60;;;12.50;82.80;;;;;;6247902;22;20328;-80
2022/12/07 08:19:23;;;;;;;24.80;9.75;;;12.60;82.80;;;;;;6248483;22;20015;-81
2022/12/07 08:21:48;;;;;;;26.70;16.83;;;12.60;82.60;;;;;;6249158;22;20027;-79
2022/12/07 08:24:14;;;;;;;45.60;24.27;;;12.60;82.20;;;;;;6277140;22;20335;-79
2022/12/07 08:26:41;;;;;;;28.35;16.00;;;12.60;82.20;;;;;;6277039;22;19995;-79
2022/12/07 08:29:06;;;;;;;35.85;13.25;;;12.70;82.10;;;;;;6249847;22;20019;-79
2022/12/07 08:31:32;;;;;;;27.90;11.60;;;12.70;82.00;;;;;;6276742;22;20031;-81
2022/12/07 08:33:58;;;;;;;30.02;9.85;;;12.70;82.10;;;;;;6276546;22;20000;-80
2022/12/07 08:36:24;;;;;;;21.90;9.45;;;12.80;82.00;;;;;;6249653;22;20008;-80
2022/12/07 08:38:50;;;;;;;22.77;8.90;;;12.90;82.00;;;;;;6277277;22;20389;-79
2022/12/07 08:41:16;;;;;;;24.02;8.85;;;12.90;81.40;;;;;;6277045;22;20049;-79
2022/12/07 08:43:42;;;;;;;18.67;7.93;;;12.90;80.70;;;;;;6276530;22;20074;-80
2022/12/07 08:46:29;;;;;;;20.40;8.00;;;13.00;81.00;;;;;;6249380;22;20444;-80
2022/12/07 08:49:01;;;;;;;24.70;8.00;;;13.10;81.30;;;;;;6249599;22;20019;-79
2022/12/07 08:51:27;;;;;;;23.35;8.35;;;13.20;80.70;;;;;;6249570;22;20004;-79
2022/12/07 08:53:55;;;;;;;26.10;9.18;;;13.20;80.30;;;;;;6276508;22;20463;-80
2022/12/07 08:56:21;;;;;;;29.05;8.32;;;13.30;80.50;;;;;;6276016;22;20011;-79
2022/12/07 08:58:48;;;;;;;19.42;7.40;;;13.40;80.30;;;;;;6249258;22;20007;-80
2022/12/07 09:01:14;;;;;;;22.58;7.88;;;13.40;80.00;;;;;;6276524;22;20485;-81
2022/12/07 09:03:40;;;;;;;26.42;7.57;;;13.50;80.10;;;;;;6249649;22;20008;-80
2022/12/07 09:06:07;;;;;;;49.28;8.60;;;13.50;79.90;;;;;;6276476;22;20010;-79
2022/12/07 09:08:39;;;;;;;21.25;7.65;;;13.60;79.70;;;;;;6276407;22;20034;-80
2022/12/07 09:11:05;;;;;;;16.38;6.53;;;13.70;79.60;;;;;;6248944;22;20472;-79
2022/12/07 09:13:31;;;;;;;16.70;6.93;;;13.70;79.50;;;;;;6276222;22;20035;-80
2022/12/07 09:15:57;;;;;;;19.77;6.78;;;13.80;79.30;;;;;;6276829;22;20019;-79
2022/12/07 09:18:24;;;;;;;20.95;6.28;;;14.00;79.30;;;;;;6276598;22;20102;-78
2022/12/07 09:20:50;;;;;;;21.45;6.32;;;14.10;79.20;;;;;;6249089;22;20015;-79
2022/12/07 09:23:15;;;;;;;18.13;6.53;;;14.20;78.20;;;;;;6276647;22;20000;-80
2022/12/07 09:25:41;;;;;;;29.35;7.13;;;14.30;77.90;;;;;;6276601;22;20007;-80
2022/12/07 09:28:07;;;;;;;24.70;6.43;;;14.50;77.90;;;;;;6275954;22;20014;-78
2022/12/07 09:30:33;;;;;;;19.08;5.55;;;14.70;77.40;;;;;;6275648;22;20019;-79
2022/12/07 09:32:58;;;;;;;16.25;6.50;;;14.80;76.80;;;;;;6276187;22;20058;-80
2022/12/07 09:35:25;;;;;;;17.75;6.03;;;14.90;76.50;;;;;;6248774;22;20004;-79
2022/12/07 09:37:51;;;;;;;21.67;6.60;;;15.10;76.50;;;;;;6248797;22;20451;-79
2022/12/07 09:40:21;;;;;;;19.58;6.20;;;15.10;75.80;;;;;;6248974;22;20004;-81
2022/12/07 09:42:53;;;;;;;17.42;5.50;;;15.30;76.00;;;;;;6276105;22;20003;-79
2022/12/07 09:45:31;;;;;;;17.05;5.88;;;15.30;75.50;;;;;;6248856;22;20089;-80
2022/12/07 09:47:58;;;;;;;21.15;6.18;;;15.40;75.20;;;;;;6275900;22;20022;-80
2022/12/07 09:50:27;;;;;;;24.95;6.00;;;15.30;75.30;;;;;;6276429;22;19999;-80
2022/12/07 09:52:54;;;;;;;19.60;5.18;;;15.30;75.20;;;;;;6248711;22;20333;-80
2022/12/07 09:55:27;;;;;;;19.10;6.47;;;15.30;75.50;;;;;;6249149;22;20004;-80
2022/12/07 09:57:53;;;;;;;20.80;6.35;;;15.20;75.40;;;;;;6248163;22;20015;-80
2022/12/07 10:00:21;;;;;;;22.38;6.55;;;15.20;75.70;;;;;;6248049;22;20008;-79
2022/12/07 10:02:53;;;;;;;16.80;6.43;;;15.20;75.60;;;;;;6275799;22;20000;-79
2022/12/07 10:05:34;;;;;;;20.48;6.95;;;15.20;75.80;;;;;;6249147;22;20012;-79
2022/12/07 10:08:00;;;;;;;20.48;6.07;;;15.30;75.50;;;;;;6276162;22;20328;-81
2022/12/07 10:10:38;;;;;;;25.88;7.30;;;15.40;75.40;;;;;;6248509;22;20008;-79
2022/12/07 10:13:07;;;;;;;18.50;6.32;;;15.50;75.40;;;;;;6249133;22;20008;-80
2022/12/07 10:15:53;;;;;;;20.77;6.38;;;15.60;75.00;;;;;;6275932;22;20090;-80
2022/12/07 10:18:19;;;;;;;39.25;8.63;;;15.60;75.00;;;;;;6275834;22;20153;-79
2022/12/07 10:20:46;;;;;;;24.17;6.43;;;15.70;74.90;;;;;;6248229;22;20324;-79
2022/12/07 10:23:17;;;;;;;28.40;6.65;;;15.80;74.70;;;;;;6248022;22;20053;-78
2022/12/07 10:25:44;;;;;;;23.73;7.60;;;15.90;74.90;;;;;;6248318;22;19999;-79
2022/12/07 10:28:18;;;;;;;21.10;6.57;;;16.00;74.50;;;;;;6275773;22;20038;-80
2022/12/07 10:31:01;;;;;;;23.23;6.60;;;16.00;74.00;;;;;;6277178;22;20011;-79
2022/12/07 10:33:30;;;;;;;19.85;5.93;;;16.10;74.10;;;;;;6249919;22;20019;-80
2022/12/07 10:35:56;;;;;;;25.00;6.80;;;16.20;74.20;;;;;;6247725;22;20004;-79
2022/12/07 10:38:21;;;;;;;19.98;6.57;;;16.20;73.80;;;;;;6249266;22;20019;-78
2022/12/07 10:40:47;;;;;;;19.05;6.22;;;16.30;74.40;;;;;;6275092;22;20429;-80
2022/12/07 10:43:13;;;;;;;17.17;7.13;;;16.30;73.30;;;;;;6247961;22;20007;-80
2022/12/07 10:46:14;;;;;;;21.60;7.65;;;16.40;73.20;;;;;;6274752;22;20019;-80
2022/12/07 10:48:59;;;;;;;18.13;7.25;;;16.40;73.10;;;;;;6274767;22;20098;-80
2022/12/07 10:51:39;;;;;;;19.92;6.85;;;16.50;73.00;;;;;;6274539;22;20428;-80
2022/12/07 10:54:11;;;;;;;31.65;7.22;;;16.60;72.80;;;;;;6247288;22;20004;-79
2022/12/07 10:56:40;;;;;;;19.98;6.53;;;16.60;72.60;;;;;;6250038;22;20015;-79
2022/12/07 10:59:38;;;;;;;22.73;6.70;;;16.70;72.60;;;;;;6248562;22;20290;-80
2022/12/07 11:02:35;;;;;;;20.20;6.25;;;16.80;72.50;;;;;;6249127;22;20004;-79
2022/12/07 11:05:24;;;;;;;24.52;6.25;;;16.90;72.70;;;;;;6168911;22;20034;-80
2022/12/07 11:08:16;;;;;;;19.10;6.20;;;16.90;72.60;;;;;;6248604;22;20015;-80
2022/12/07 11:11:10;;;;;;;21.33;6.50;;;17.00;72.70;;;;;;6275305;22;20080;-80
2022/12/07 11:13:51;;;;;;;23.10;7.55;;;17.10;72.20;;;;;;6212371;22;20022;-79
2022/12/07 11:16:29;;;;;;;17.77;6.03;;;17.20;72.30;;;;;;6247856;22;20073;-80
2022/12/07 11:19:14;;;;;;;29.75;7.25;;;17.30;72.30;;;;;;6248466;22;20018;-80
2022/12/07 11:22:05;;;;;;;23.95;6.28;;;17.30;71.30;;;;;;6275706;22;20106;-79
2022/12/07 11:24:56;;;;;;;27.73;7.38;;;17.40;71.80;;;;;;6275188;22;20066;-80
2022/12/07 11:27:27;;;;;;;16.08;6.38;;;17.50;71.40;;;;;;6274871;22;20462;-79
2022/12/07 11:30:16;;;;;;;19.83;6.25;;;17.50;71.80;;;;;;6275150;22;20007;-79
2022/12/07 11:32:47;;;;;;;17.67;6.82;;;17.60;72.00;;;;;;6249699;22;20058;-80
2022/12/07 11:35:22;;;;;;;23.90;6.72;;;17.60;72.10;;;;;;6249478;22;20332;-80
2022/12/07 11:37:54;;;;;;;19.65;6.80;;;17.80;71.70;;;;;;6274964;22;20114;-80
2022/12/07 11:40:36;;;;;;;15.65;6.35;;;17.80;71.20;;;;;;6275293;22;20387;-79
2022/12/07 11:43:10;;;;;;;22.23;7.07;;;17.80;72.70;;;;;;6275080;22;20441;-80
2022/12/07 11:45:40;;;;;;;24.55;7.38;;;17.90;71.80;;;;;;6275449;22;19996;-79
2022/12/07 11:48:14;;;;;;;22.65;7.63;;;18.00;71.20;;;;;;6247582;22;20024;-80
2022/12/07 11:50:46;;;;;;;32.60;8.80;;;18.00;71.80;;;;;;6275162;22;20022;-77
2022/12/07 11:53:33;;;;;;;23.77;8.07;;;18.10;70.90;;;;;;6275597;22;20079;-79
2022/12/07 11:56:14;;;;;;;28.95;8.85;;;18.20;72.00;;;;;;6277329;22;20053;-79
2022/12/07 11:58:49;;;;;;;19.45;8.10;;;18.20;70.90;;;;;;6250011;22;20011;-79
2022/12/07 12:01:25;;;;;;;19.42;7.07;;;18.30;71.90;;;;;;6276595;22;20035;-79
2022/12/07 12:03:56;;;;;;;24.02;7.03;;;18.40;71.90;;;;;;6276791;22;20022;-80
2022/12/07 12:06:22;;;;;;;25.77;8.32;;;18.40;71.10;;;;;;6277143;22;20388;-78
2022/12/07 12:09:26;;;;;;;30.17;7.20;;;18.50;71.20;;;;;;6276891;22;20018;-79
2022/12/07 12:12:01;;;;;;;16.88;7.03;;;18.50;72.00;;;;;;6209266;22;20079;-81
2022/12/07 12:15:00;;;;;;;22.08;8.20;;;18.50;71.90;;;;;;6276921;22;20043;-80
2022/12/07 12:17:26;;;;;;;17.70;7.30;;;18.60;72.20;;;;;;6276632;22;20003;-79
2022/12/07 12:20:29;;;;;;;19.30;7.60;;;18.60;71.80;;;;;;6249466;22;20008;-80
2022/12/07 12:23:01;;;;;;;23.42;7.32;;;18.60;72.50;;;;;;6214350;22;20004;-79
2022/12/07 12:25:37;;;;;;;28.20;7.50;;;18.70;71.80;;;;;;6249633;22;20387;-80
2022/12/07 12:28:03;;;;;;;20.60;6.72;;;18.70;71.80;;;;;;6249423;22;20019;-80
2022/12/07 12:30:38;;;;;;;23.30;7.63;;;18.70;71.80;;;;;;6249764;22;20331;-79
2022/12/07 12:33:26;;;;;;;20.08;6.35;;;18.80;72.00;;;;;;6249889;22;20022;-80
2022/12/07 12:36:15;;;;;;;17.85;7.00;;;18.80;71.90;;;;;;6249665;22;20011;-80
2022/12/07 12:38:58;;;;;;;19.85;6.35;;;18.70;73.10;;;;;;6249742;22;20362;-79
2022/12/07 12:44:19;;;;;;;24.17;7.90;;;18.70;73.10;;;;;;6276937;22;20015;-81
2022/12/07 12:46:55;;;;;;;23.75;6.93;;;18.80;72.80;;;;;;6276782;22;20003;-81
2022/12/07 12:49:21;;;;;;;19.70;6.85;;;18.90;72.90;;;;;;6276558;22;20012;-81
2022/12/07 12:51:52;;;;;;;15.88;5.97;;;18.90;72.30;;;;;;6249789;22;20091;-80
2022/12/07 12:54:17;;;;;;;23.38;7.45;;;18.90;72.10;;;;;;6249651;22;20039;-80
2022/12/07 12:57:06;;;;;;;19.45;7.13;;;18.90;72.20;;;;;;6249890;22;20285;-81